Time;durP1;ratioP1;P1;durP2;ratioP2;P2;SDS_P1;SDS_P2;PMS_P1;PMS_P2;Temp;Humidity;BMP_temperature;BMP_pressure;BME280_temperature;BME280_humidity;BME280_pressure;Samples;Min_cycle;Max_cycle;Signal;HPM_P1;HPM_P2
2023/05/15 00:01:20;;;;;;;19.98;9.75;;;13.40;99.90;;;;;;5091786;28;20358;-59
2023/05/15 00:03:46;;;;;;;16.73;10.35;;;13.40;99.90;;;;;;5091793;28;20172;-59
2023/05/15 00:06:12;;;;;;;17.52;9.13;;;13.50;99.90;;;;;;5073433;28;20233;-59
2023/05/15 00:08:37;;;;;;;15.27;7.20;;;13.40;99.90;;;;;;5091599;28;20629;-60
2023/05/15 00:11:03;;;;;;;11.75;5.35;;;13.10;99.90;;;;;;5091553;28;20581;-60
2023/05/15 00:13:29;;;;;;;6.80;4.45;;;13.10;99.90;;;;;;5091620;28;20635;-60
2023/05/15 00:15:54;;;;;;;7.15;4.45;;;13.10;99.90;;;;;;5091813;28;20168;-59
2023/05/15 00:18:20;;;;;;;7.93;4.18;;;13.20;99.90;;;;;;5091481;28;20536;-60
2023/05/15 00:20:46;;;;;;;6.63;3.70;;;13.20;99.90;;;;;;5091534;28;20234;-60
2023/05/15 00:23:11;;;;;;;7.70;2.90;;;13.20;99.90;;;;;;5073368;28;20524;-59
2023/05/15 00:25:37;;;;;;;6.80;2.80;;;13.10;99.90;;;;;;5091378;28;20636;-59
2023/05/15 00:28:02;;;;;;;8.20;2.10;;;13.20;99.90;;;;;;5091554;28;20705;-59
2023/05/15 00:30:28;;;;;;;5.68;2.10;;;13.10;99.90;;;;;;5091499;28;20211;-59
2023/05/15 00:32:54;;;;;;;6.32;1.95;;;13.10;99.90;;;;;;5091222;28;20190;-59
2023/05/15 00:35:19;;;;;;;2.65;1.42;;;12.90;99.90;;;;;;5090351;28;20215;-59
2023/05/15 00:37:45;;;;;;;5.05;1.88;;;13.00;99.90;;;;;;5091316;28;20207;-60
2023/05/15 00:40:18;;;;;;;5.50;2.00;;;13.20;99.90;;;;;;5091149;28;20178;-60
2023/05/15 00:42:45;;;;;;;4.07;1.70;;;13.00;99.90;;;;;;5091083;28;20172;-59
2023/05/15 00:45:12;;;;;;;7.38;1.77;;;13.00;99.90;;;;;;5091125;28;20176;-59
2023/05/15 00:47:39;;;;;;;4.05;1.65;;;12.90;99.90;;;;;;5091061;28;20632;-61
2023/05/15 00:50:07;;;;;;;7.03;1.77;;;13.00;99.90;;;;;;5091016;28;20199;-60
2023/05/15 00:52:33;;;;;;;3.38;1.50;;;12.90;99.90;;;;;;5090966;28;20180;-59
2023/05/15 00:54:59;;;;;;;4.77;1.57;;;12.90;99.90;;;;;;5091029;28;20628;-59
2023/05/15 00:57:26;;;;;;;8.17;1.60;;;12.80;99.90;;;;;;5090979;28;20170;-58
2023/05/15 00:59:53;;;;;;;9.70;1.88;;;12.80;99.90;;;;;;5091056;28;20200;-58
2023/05/15 01:02:18;;;;;;;5.97;1.60;;;12.80;99.90;;;;;;5090999;28;20179;-58
2023/05/15 01:04:44;;;;;;;5.93;2.13;;;12.80;99.90;;;;;;5090971;28;20164;-58
2023/05/15 01:07:11;;;;;;;5.35;1.40;;;12.70;99.90;;;;;;5090812;28;20664;-58
2023/05/15 01:09:38;;;;;;;6.28;1.65;;;12.60;99.90;;;;;;5090824;28;20180;-58
2023/05/15 01:12:05;;;;;;;7.95;2.08;;;12.70;99.90;;;;;;5090884;28;20171;-58
2023/05/15 01:14:31;;;;;;;6.90;1.70;;;12.60;99.90;;;;;;5090969;28;20263;-58
2023/05/15 01:16:56;;;;;;;3.88;1.52;;;12.60;99.90;;;;;;5090728;28;20310;-58
2023/05/15 01:19:22;;;;;;;5.57;1.77;;;12.60;99.90;;;;;;5090871;28;20168;-58
2023/05/15 01:22:15;;;;;;;5.97;1.43;;;12.60;99.90;;;;;;5090691;28;20179;-58
2023/05/15 01:25:20;;;;;;;7.53;1.50;;;12.60;99.90;;;;;;5090758;28;20247;-58
2023/05/15 01:27:53;;;;;;;3.85;1.40;;;12.60;99.90;;;;;;5090692;28;20191;-58
2023/05/15 01:30:32;;;;;;;5.97;1.70;;;12.50;99.90;;;;;;5090554;28;20577;-59
2023/05/15 01:33:04;;;;;;;6.93;2.00;;;12.60;99.90;;;;;;5090515;28;20751;-58
2023/05/15 01:35:43;;;;;;;5.93;1.80;;;12.50;99.90;;;;;;5090638;28;20688;-58
2023/05/15 01:38:30;;;;;;;7.03;1.63;;;12.50;99.90;;;;;;5090597;28;20180;-59
2023/05/15 01:41:02;;;;;;;10.35;2.08;;;12.60;99.90;;;;;;5090832;28;20164;-58
2023/05/15 01:43:30;;;;;;;8.27;1.90;;;12.50;99.90;;;;;;5090454;28;20267;-58
2023/05/15 01:45:57;;;;;;;7.50;1.77;;;12.50;99.90;;;;;;5091510;28;20648;-59
2023/05/15 01:48:25;;;;;;;11.23;1.90;;;12.40;99.90;;;;;;5094292;28;20635;-58
2023/05/15 01:50:52;;;;;;;6.15;1.52;;;12.40;99.90;;;;;;5094206;28;20263;-59
2023/05/15 01:53:19;;;;;;;11.30;1.87;;;12.50;99.90;;;;;;5094523;28;20168;-58
2023/05/15 01:55:47;;;;;;;7.43;1.55;;;12.40;99.90;;;;;;5094170;28;20167;-58
2023/05/15 01:58:14;;;;;;;6.23;1.43;;;12.30;99.90;;;;;;5094100;28;20644;-58
2023/05/15 02:00:41;;;;;;;14.10;1.90;;;12.30;99.90;;;;;;5094115;28;20500;-58
2023/05/15 02:03:07;;;;;;;6.93;1.57;;;12.60;99.90;;;;;;5094078;28;20172;-58
2023/05/15 02:05:34;;;;;;;2.80;1.40;;;12.20;99.90;;;;;;5093846;28;20183;-58
2023/05/15 02:08:02;;;;;;;7.50;1.70;;;12.20;99.90;;;;;;5093975;28;20655;-58
2023/05/15 02:10:28;;;;;;;9.53;2.17;;;12.10;99.90;;;;;;5093993;28;20377;-58
2023/05/15 02:12:54;;;;;;;7.50;1.70;;;12.00;99.90;;;;;;5093904;28;20512;-58
2023/05/15 02:15:22;;;;;;;6.13;1.60;;;12.00;99.90;;;;;;5093831;28;20250;-59
2023/05/15 02:17:47;;;;;;;4.57;1.53;;;12.00;99.90;;;;;;5093750;28;20175;-59
2023/05/15 02:20:13;;;;;;;6.53;1.63;;;11.80;99.90;;;;;;5075781;28;20179;-59
2023/05/15 02:22:39;;;;;;;5.63;1.33;;;12.00;99.90;;;;;;5093796;28;20259;-59
2023/05/15 02:25:05;;;;;;;6.47;1.80;;;11.80;99.90;;;;;;5093601;28;20658;-59
2023/05/15 02:27:56;;;;;;;3.37;1.20;;;11.80;99.90;;;;;;5093701;28;20168;-59
2023/05/15 02:30:28;;;;;;;7.77;1.60;;;11.70;99.90;;;;;;5088443;28;20214;-59
2023/05/15 02:32:59;;;;;;;5.93;1.30;;;11.60;99.90;;;;;;5081942;28;20521;-59
2023/05/15 02:35:35;;;;;;;6.70;1.40;;;11.30;99.90;;;;;;5093147;28;20226;-59
2023/05/15 02:38:07;;;;;;;5.00;1.70;;;11.60;99.90;;;;;;5093351;28;20262;-59
2023/05/15 02:40:36;;;;;;;6.20;1.73;;;11.60;99.90;;;;;;5076494;28;20177;-60
2023/05/15 02:43:02;;;;;;;7.70;1.77;;;11.60;99.90;;;;;;5083925;28;20184;-60
2023/05/15 02:45:28;;;;;;;11.10;1.50;;;;;;;;;;5093096;28;20228;-59
2023/05/15 02:47:54;;;;;;;5.47;1.43;;;11.50;99.90;;;;;;5093233;28;20270;-59
2023/05/15 02:50:20;;;;;;;3.97;1.20;;;11.60;99.90;;;;;;5092914;28;20283;-60
2023/05/15 02:52:46;;;;;;;4.67;1.10;;;11.50;99.90;;;;;;5093130;28;20172;-59
2023/05/15 02:55:11;;;;;;;9.37;1.57;;;11.50;99.90;;;;;;5074622;28;20676;-60
2023/05/15 02:57:37;;;;;;;5.53;1.53;;;11.50;99.90;;;;;;5071954;28;20180;-62
2023/05/15 03:00:06;;;;;;;3.33;1.07;;;11.40;99.90;;;;;;5088706;28;20252;-60
2023/05/15 03:02:31;;;;;;;8.37;1.33;;;11.40;99.90;;;;;;5092041;28;20361;-59
2023/05/15 03:04:57;;;;;;;6.67;1.40;;;11.40;99.90;;;;;;5092632;28;20299;-59
2023/05/15 03:07:23;;;;;;;4.27;1.20;;;11.40;99.90;;;;;;5092790;28;20336;-59
2023/05/15 03:09:48;;;;;;;6.30;1.23;;;11.30;99.90;;;;;;5080585;28;20180;-58
2023/05/15 03:12:14;;;;;;;5.43;1.47;;;11.30;99.90;;;;;;5076266;28;20183;-59
2023/05/15 03:14:39;;;;;;;6.67;1.43;;;11.30;99.90;;;;;;5091235;28;20184;-58
2023/05/15 03:17:05;;;;;;;8.50;1.17;;;11.20;99.90;;;;;;5085964;28;20191;-59
2023/05/15 03:19:30;;;;;;;7.13;1.77;;;11.20;99.90;;;;;;5072361;28;20632;-59
2023/05/15 03:21:56;;;;;;;6.80;1.20;;;11.20;99.90;;;;;;5072311;28;20180;-59
2023/05/15 03:24:22;;;;;;;7.30;1.40;;;11.20;99.90;;;;;;5082464;28;20514;-59
2023/05/15 03:26:47;;;;;;;3.67;1.30;;;11.20;99.90;;;;;;5086829;28;20185;-58
2023/05/15 03:29:13;;;;;;;8.00;1.33;;;11.30;99.90;;;;;;5088395;28;20664;-58
2023/05/15 03:31:38;;;;;;;5.80;1.17;;;11.20;99.90;;;;;;5094178;28;20239;-58
2023/05/15 03:34:04;;;;;;;4.50;1.27;;;11.30;99.90;;;;;;5092254;28;20202;-59
2023/05/15 03:36:30;;;;;;;4.90;1.20;;;11.20;99.90;;;;;;5082427;28;20217;-58
2023/05/15 03:38:55;;;;;;;5.23;1.20;;;11.20;99.90;;;;;;5071925;28;20271;-58
2023/05/15 03:41:21;;;;;;;5.57;1.00;;;11.30;99.90;;;;;;5075697;28;20266;-58
2023/05/15 03:43:47;;;;;;;8.57;1.10;;;11.30;99.90;;;;;;5092036;28;20175;-59
2023/05/15 03:46:12;;;;;;;9.30;1.40;;;11.30;99.90;;;;;;5092062;28;20628;-59
2023/05/15 03:48:38;;;;;;;5.57;1.30;;;11.30;99.90;;;;;;5074120;28;20168;-59
2023/05/15 03:51:04;;;;;;;6.50;1.00;;;;;;;;;;5091889;28;20211;-60
2023/05/15 03:53:29;;;;;;;4.43;1.10;;;11.40;99.90;;;;;;5091930;28;20191;-58
2023/05/15 03:55:56;;;;;;;6.90;1.10;;;11.50;99.90;;;;;;5091843;28;20263;-58
2023/05/15 03:58:21;;;;;;;7.33;1.30;;;11.30;99.90;;;;;;5091815;28;20271;-59
2023/05/15 04:00:47;;;;;;;5.00;1.20;;;11.30;99.90;;;;;;5091747;28;20643;-59
2023/05/15 04:03:13;;;;;;;4.97;1.40;;;11.30;99.90;;;;;;5092039;28;20203;-59
2023/05/15 04:05:38;;;;;;;5.07;1.67;;;11.30;99.90;;;;;;5091654;28;20195;-59
2023/05/15 04:08:04;;;;;;;6.97;1.03;;;11.20;99.90;;;;;;5091676;28;20251;-59
2023/05/15 04:10:31;;;;;;;3.83;1.00;;;11.20;99.90;;;;;;5091589;28;20268;-59
2023/05/15 04:12:57;;;;;;;9.33;1.00;;;11.20;99.90;;;;;;5091664;28;20183;-59
2023/05/15 04:15:25;;;;;;;7.33;1.40;;;11.20;99.90;;;;;;5091654;28;20210;-59
2023/05/15 04:17:52;;;;;;;4.33;1.13;;;11.20;99.90;;;;;;5091627;28;20628;-59
2023/05/15 04:20:20;;;;;;;5.97;1.60;;;11.20;78.30;;;;;;5091649;28;20171;-59
2023/05/15 04:22:46;;;;;;;4.27;1.20;;;11.20;99.90;;;;;;5091529;28;20202;-58
2023/05/15 04:25:13;;;;;;;4.13;1.30;;;11.20;99.90;;;;;;5091427;28;20176;-59
2023/05/15 04:27:39;;;;;;;5.23;1.40;;;11.10;99.40;;;;;;5091666;28;20180;-59
2023/05/15 04:30:06;;;;;;;3.97;1.03;;;11.20;57.50;;;;;;5091344;28;20203;-58
2023/05/15 04:32:32;;;;;;;4.77;1.00;;;;;;;;;;5091209;28;20267;-59
2023/05/15 04:35:00;;;;;;;5.10;1.00;;;11.10;1.00;;;;;;5090992;28;20223;-59
2023/05/15 04:37:26;;;;;;;8.20;1.63;;;11.20;1.00;;;;;;5091263;28;20171;-58
2023/05/15 04:39:51;;;;;;;5.83;1.03;;;11.00;1.00;;;;;;5091291;28;20686;-59
2023/05/15 04:42:17;;;;;;;4.00;1.07;;;11.20;1.00;;;;;;5091059;28;20171;-59
2023/05/15 04:44:43;;;;;;;6.10;1.27;;;11.20;14.20;;;;;;5091105;28;20270;-61
2023/05/15 04:47:10;;;;;;;3.83;1.00;;;11.20;1.00;;;;;;5091179;28;20261;-59
2023/05/15 04:49:36;;;;;;;7.47;1.10;;;11.30;1.00;;;;;;5091094;28;20170;-59
2023/05/15 04:52:02;;;;;;;6.37;1.03;;;11.20;1.00;;;;;;5090985;28;20207;-59
2023/05/15 04:54:28;;;;;;;5.37;0.97;;;11.10;1.00;;;;;;5090881;28;20263;-59
2023/05/15 04:56:54;;;;;;;6.40;1.10;;;11.20;1.00;;;;;;5091238;28;20203;-58
2023/05/15 04:59:19;;;;;;;3.30;0.80;;;11.20;1.00;;;;;;5091021;28;20254;-58
2023/05/15 05:01:45;;;;;;;4.57;0.73;;;11.20;1.00;;;;;;5091091;28;20636;-59
2023/05/15 05:04:10;;;;;;;8.17;1.27;;;11.10;99.90;;;;;;5091021;28;20704;-59
2023/05/15 05:06:36;;;;;;;5.40;1.30;;;11.20;99.90;;;;;;5072821;28;20308;-59
2023/05/15 05:09:02;;;;;;;5.33;1.50;;;11.00;99.90;;;;;;5090918;28;20663;-58
2023/05/15 05:11:28;;;;;;;5.33;0.80;;;11.10;99.90;;;;;;5090831;28;20211;-58
2023/05/15 05:13:53;;;;;;;5.47;1.10;;;11.20;99.90;;;;;;5090988;28;20175;-58
2023/05/15 05:16:19;;;;;;;5.43;0.87;;;;;;;;;;5090870;28;20172;-59
2023/05/15 05:18:45;;;;;;;9.53;1.10;;;11.10;1.00;;;;;;5090801;28;20195;-58
2023/05/15 05:21:10;;;;;;;5.43;1.00;;;11.00;99.90;;;;;;5092163;28;20241;-58
2023/05/15 05:23:36;;;;;;;5.43;0.90;;;11.00;1.00;;;;;;5094772;28;20181;-58
2023/05/15 05:26:02;;;;;;;7.30;1.10;;;11.00;1.00;;;;;;5094766;28;20175;-58
2023/05/15 05:28:28;;;;;;;8.33;1.13;;;;;;;;;;5076605;28;20171;-59
2023/05/15 05:30:53;;;;;;;4.37;0.73;;;11.00;1.00;;;;;;5094528;28;20239;-58
2023/05/15 05:33:19;;;;;;;3.80;0.80;;;11.00;1.00;;;;;;5094677;28;20207;-57
2023/05/15 05:35:44;;;;;;;7.77;1.37;;;10.90;99.90;;;;;;5094420;28;20227;-58
2023/05/15 05:38:10;;;;;;;8.03;1.07;;;11.00;59.40;;;;;;5094604;28;20225;-57
2023/05/15 05:40:36;;;;;;;5.23;1.07;;;10.90;99.90;;;;;;5094516;28;20653;-57
2023/05/15 05:43:02;;;;;;;9.43;1.17;;;11.00;1.00;;;;;;5094353;28;20210;-57
2023/05/15 05:45:28;;;;;;;5.97;1.20;;;11.00;1.00;;;;;;5094386;28;20200;-57
2023/05/15 05:47:55;;;;;;;7.17;0.90;;;11.30;1.00;;;;;;5094440;28;20640;-57
2023/05/15 05:50:21;;;;;;;5.10;0.93;;;11.10;1.00;;;;;;5092421;28;20203;-58
2023/05/15 05:52:47;;;;;;;2.43;0.67;;;11.10;99.90;;;;;;5094298;28;20652;-57
2023/05/15 05:55:13;;;;;;;5.73;1.13;;;11.20;99.90;;;;;;5094197;28;20184;-58
2023/05/15 05:57:38;;;;;;;3.40;1.00;;;11.20;99.90;;;;;;5094215;28;20176;-58
2023/05/15 06:00:08;;;;;;;6.90;0.93;;;11.10;1.00;;;;;;5094191;28;20632;-58
2023/05/15 06:02:34;;;;;;;4.50;1.13;;;;;;;;;;5093903;28;20635;-58
2023/05/15 06:05:00;;;;;;;5.60;0.90;;;11.00;1.00;;;;;;5081021;28;20230;-58
2023/05/15 06:07:26;;;;;;;11.27;1.43;;;11.10;1.00;;;;;;5085731;28;20171;-59
2023/05/15 06:09:53;;;;;;;6.37;1.10;;;;;;;;;;5085170;28;20199;-59
2023/05/15 06:12:18;;;;;;;5.63;1.50;;;11.10;99.90;;;;;;5089849;28;20191;-59
2023/05/15 06:14:44;;;;;;;7.87;1.17;;;11.10;1.00;;;;;;5080926;28;20230;-58
2023/05/15 06:17:10;;;;;;;7.33;1.27;;;11.20;1.00;;;;;;5073621;28;20226;-59
2023/05/15 06:19:35;;;;;;;13.70;1.30;;;11.20;99.90;;;;;;5077513;28;20739;-59
2023/05/15 06:22:01;;;;;;;7.80;0.90;;;11.40;62.10;;;;;;5073611;28;20176;-59
2023/05/15 06:24:26;;;;;;;9.10;1.40;;;11.40;1.00;;;;;;5089420;28;20179;-60
2023/05/15 06:26:52;;;;;;;5.53;1.30;;;11.40;1.00;;;;;;5086973;28;20635;-58
2023/05/15 06:29:18;;;;;;;8.23;1.53;;;11.40;1.00;;;;;;5079733;28;20172;-59
2023/05/15 06:31:44;;;;;;;5.17;1.13;;;11.50;99.90;;;;;;5072826;28;20568;-60
2023/05/15 06:34:09;;;;;;;6.83;1.20;;;11.50;1.00;;;;;;5072292;28;20560;-60
2023/05/15 06:36:35;;;;;;;8.23;1.10;;;11.50;1.00;;;;;;5073041;28;20703;-60
2023/05/15 06:39:01;;;;;;;7.90;1.23;;;11.50;1.00;;;;;;5089343;28;20644;-59
2023/05/15 06:41:27;;;;;;;7.80;1.07;;;11.60;1.00;;;;;;5089574;28;20224;-60
2023/05/15 06:43:53;;;;;;;8.07;1.33;;;11.50;1.00;;;;;;5083451;28;20298;-63
2023/05/15 06:46:19;;;;;;;4.73;1.03;;;11.60;17.70;;;;;;5082138;28;20187;-63
2023/05/15 06:48:46;;;;;;;7.13;1.83;;;11.50;1.00;;;;;;5093048;28;20692;-63
2023/05/15 06:51:12;;;;;;;8.90;1.37;;;11.50;1.00;;;;;;5093007;28;20212;-63
2023/05/15 06:53:37;;;;;;;12.83;1.50;;;11.60;99.90;;;;;;5093271;28;20170;-64
2023/05/15 06:56:03;;;;;;;4.03;1.10;;;11.60;1.00;;;;;;5092948;28;20599;-65
2023/05/15 06:58:29;;;;;;;6.87;1.53;;;;;;;;;;5093023;28;20596;-64
2023/05/15 07:00:55;;;;;;;8.40;1.20;;;11.60;1.00;;;;;;5092156;28;20174;-64
2023/05/15 07:03:20;;;;;;;5.63;1.17;;;11.60;1.00;;;;;;5081232;28;20635;-64
2023/05/15 07:05:46;;;;;;;5.40;1.27;;;11.60;99.90;;;;;;5080625;28;20187;-63
2023/05/15 07:08:11;;;;;;;10.33;1.10;;;11.50;1.00;;;;;;5092903;28;20179;-62
2023/05/15 07:10:37;;;;;;;9.90;1.20;;;11.50;99.90;;;;;;5086725;28;20207;-63
2023/05/15 07:13:03;;;;;;;5.83;1.20;;;11.80;99.90;;;;;;5072456;28;20659;-61
2023/05/15 07:15:28;;;;;;;8.53;1.57;;;11.80;99.90;;;;;;5082120;28;20168;-64
2023/05/15 07:17:54;;;;;;;7.17;1.13;;;11.80;99.90;;;;;;5092518;28;20262;-63
2023/05/15 07:20:20;;;;;;;10.30;1.50;;;12.80;99.90;;;;;;5092375;28;20674;-64
2023/05/15 07:22:45;;;;;;;10.27;1.30;;;11.90;99.90;;;;;;5092331;28;20371;-64
2023/05/15 07:25:11;;;;;;;9.30;1.53;;;;;;;;;;5076379;28;20180;-64
2023/05/15 07:27:37;;;;;;;5.60;1.50;;;12.00;99.90;;;;;;5071944;28;20223;-65
2023/05/15 07:30:03;;;;;;;8.77;1.63;;;12.10;99.90;;;;;;5073120;28;20192;-63
2023/05/15 07:32:29;;;;;;;12.40;1.70;;;12.00;1.00;;;;;;5090526;28;20176;-63
2023/05/15 07:34:55;;;;;;;13.20;1.90;;;12.00;20.60;;;;;;5090979;28;20212;-62
2023/05/15 07:37:22;;;;;;;8.73;1.57;;;12.00;1.00;;;;;;5075240;28;20546;-62
2023/05/15 07:39:48;;;;;;;10.83;1.47;;;12.00;1.00;;;;;;5092431;28;20176;-62
2023/05/15 07:42:14;;;;;;;8.13;1.57;;;12.10;1.00;;;;;;5078411;28;20227;-62
2023/05/15 07:44:39;;;;;;;7.00;1.60;;;12.20;1.00;;;;;;5076292;28;20572;-63
2023/05/15 07:47:05;;;;;;;12.03;2.17;;;12.20;1.00;;;;;;5091942;28;20172;-63
2023/05/15 07:49:31;;;;;;;10.83;1.90;;;12.30;99.90;;;;;;5091898;28;20218;-63
2023/05/15 07:51:56;;;;;;;12.27;1.80;;;12.20;1.00;;;;;;5091702;28;20719;-63
2023/05/15 07:54:22;;;;;;;9.40;1.37;;;12.30;99.90;;;;;;5078356;28;20172;-64
2023/05/15 07:56:48;;;;;;;6.47;1.63;;;12.20;1.00;;;;;;5071701;28;20250;-67
2023/05/15 07:59:13;;;;;;;7.93;1.83;;;12.30;1.00;;;;;;5070236;28;20172;-62
2023/05/15 08:01:39;;;;;;;12.53;1.53;;;12.50;1.00;;;;;;5071885;28;20177;-60
2023/05/15 08:04:07;;;;;;;13.03;1.80;;;12.60;1.00;;;;;;5072176;28;20704;-62
2023/05/15 08:06:35;;;;;;;8.37;1.77;;;12.50;1.00;;;;;;5076509;28;20199;-61
2023/05/15 08:09:01;;;;;;;9.60;1.80;;;12.50;1.00;;;;;;5091662;28;20254;-60
2023/05/15 08:11:27;;;;;;;13.93;1.75;;;12.60;99.90;;;;;;5091338;28;20218;-60
2023/05/15 08:13:53;;;;;;;8.00;1.67;;;12.80;87.20;;;;;;5091414;28;20168;-60
2023/05/15 08:16:18;;;;;;;6.18;1.33;;;13.00;1.00;;;;;;5090928;28;20168;-61
2023/05/15 08:18:44;;;;;;;7.83;1.40;;;13.10;1.00;;;;;;5069382;28;20176;-60
2023/05/15 08:21:10;;;;;;;15.07;1.67;;;13.20;1.00;;;;;;5089635;28;20289;-61
2023/05/15 08:23:35;;;;;;;9.43;1.80;;;13.30;1.00;;;;;;5071842;28;20177;-61
2023/05/15 08:26:01;;;;;;;9.67;1.53;;;13.60;1.00;;;;;;5071996;28;20180;-61
2023/05/15 08:28:27;;;;;;;10.88;1.30;;;13.70;1.00;;;;;;5091324;28;20644;-60
2023/05/15 08:30:52;;;;;;;6.53;1.63;;;14.00;99.90;;;;;;5082659;28;20207;-61
2023/05/15 08:33:18;;;;;;;6.13;1.33;;;14.40;99.90;;;;;;5085019;28;20263;-60
2023/05/15 08:35:43;;;;;;;5.65;1.10;;;15.00;1.00;;;;;;5090792;28;20322;-59
2023/05/15 08:38:09;;;;;;;5.25;1.80;;;15.60;1.00;;;;;;5091130;28;20174;-60
2023/05/15 08:40:35;;;;;;;11.05;1.98;;;16.10;1.00;;;;;;5072523;28;20233;-61
2023/05/15 08:43:13;;;;;;;20.95;1.73;;;16.60;99.90;;;;;;5090445;28;20182;-61
2023/05/15 08:45:40;;;;;;;8.95;1.50;;;16.70;99.90;;;;;;5091227;28;20251;-60
2023/05/15 08:48:12;;;;;;;10.82;1.38;;;17.40;99.90;;;;;;5071615;28;20165;-61
2023/05/15 08:50:39;;;;;;;15.77;2.33;;;17.50;99.90;;;;;;5070647;28;20212;-60
2023/05/15 08:53:05;;;;;;;10.57;1.80;;;17.60;99.90;;;;;;5085152;28;20171;-61
2023/05/15 08:55:31;;;;;;;11.40;1.50;;;18.80;1.00;;;;;;5072165;28;20186;-61
2023/05/15 08:57:58;;;;;;;9.77;1.55;;;17.50;99.90;;;;;;5084352;28;20180;-61
2023/05/15 09:00:25;;;;;;;10.30;1.63;;;17.50;99.90;;;;;;5070567;28;20160;-61
2023/05/15 09:02:53;;;;;;;10.48;1.65;;;18.00;90.80;;;;;;5070585;28;20172;-59
2023/05/15 09:05:18;;;;;;;8.38;1.52;;;17.80;99.90;;;;;;5070549;28;20659;-59
2023/05/15 09:07:46;;;;;;;7.80;1.63;;;17.70;31.70;;;;;;5086203;28;20204;-59
2023/05/15 09:10:13;;;;;;;4.82;1.23;;;18.20;46.70;;;;;;5070648;28;20192;-60
2023/05/15 09:12:43;;;;;;;8.32;1.65;;;17.90;1.00;;;;;;5070475;28;20176;-59
2023/05/15 09:15:16;;;;;;;4.25;1.30;;;17.20;1.00;;;;;;5070698;28;20161;-59
2023/05/15 09:17:43;;;;;;;5.22;1.27;;;17.10;1.00;;;;;;5070686;28;20237;-59
2023/05/15 09:20:32;;;;;;;9.93;1.30;;;17.00;1.00;;;;;;5052515;28;20258;-61
2023/05/15 09:22:59;;;;;;;7.78;1.20;;;17.30;1.00;;;;;;5070477;28;20188;-59
2023/05/15 09:25:41;;;;;;;9.90;1.60;;;16.80;1.00;;;;;;5070524;28;20169;-59
2023/05/15 09:28:30;;;;;;;6.25;1.40;;;15.90;1.00;;;;;;5052439;28;20177;-61
2023/05/15 09:31:00;;;;;;;9.15;1.65;;;15.60;1.00;;;;;;5099374;28;20206;-59
2023/05/15 09:33:37;;;;;;;5.53;1.50;;;15.20;1.00;;;;;;5090506;28;20276;-59
2023/05/15 09:36:06;;;;;;;8.73;1.40;;;15.00;1.00;;;;;;5090303;28;20250;-60
2023/05/15 09:38:33;;;;;;;6.75;1.33;;;14.80;1.00;;;;;;5090546;28;20168;-60
2023/05/15 09:41:04;;;;;;;5.45;1.02;;;15.20;1.00;;;;;;5090479;28;20293;-59
2023/05/15 09:43:34;;;;;;;62.30;7.18;;;15.80;1.00;;;;;;5072293;28;20670;-60
2023/05/15 09:45:59;;;;;;;189.30;16.30;;;15.80;1.00;;;;;;5090433;28;20233;-60
2023/05/15 09:48:25;;;;;;;10.65;1.30;;;;;;;;;;5090471;28;20172;-60
2023/05/15 09:50:52;;;;;;;4.30;1.30;;;15.70;1.00;;;;;;5090326;28;20208;-60
2023/05/15 09:53:17;;;;;;;7.82;1.52;;;16.00;1.00;;;;;;5090367;28;20605;-60
2023/05/15 09:55:43;;;;;;;7.43;1.33;;;15.70;1.00;;;;;;5090403;28;20261;-60
2023/05/15 09:58:14;;;;;;;4.88;1.02;;;16.40;99.90;;;;;;5072323;28;20624;-60
2023/05/15 10:00:42;;;;;;;5.15;1.17;;;16.60;99.90;;;;;;5090346;28;20203;-60
2023/05/15 10:03:08;;;;;;;5.38;1.20;;;17.60;99.90;;;;;;5090218;28;20225;-60
2023/05/15 10:05:35;;;;;;;15.90;1.90;;;18.10;99.90;;;;;;5090396;28;20213;-60
2023/05/15 10:08:01;;;;;;;5.75;1.13;;;18.30;99.90;;;;;;5092868;28;20170;-60
2023/05/15 10:10:27;;;;;;;7.55;1.15;;;17.70;99.90;;;;;;5094289;28;20200;-61
2023/05/15 10:12:57;;;;;;;5.85;1.35;;;18.00;99.90;;;;;;5093723;28;20171;-60
2023/05/15 10:15:23;;;;;;;8.00;1.65;;;17.50;99.90;;;;;;5076332;28;20195;-60
2023/05/15 10:17:51;;;;;;;7.65;1.23;;;17.80;99.90;;;;;;5093746;28;20632;-60
2023/05/15 10:20:19;;;;;;;10.73;1.58;;;17.80;99.90;;;;;;5093797;28;20180;-59
2023/05/15 10:22:46;;;;;;;5.63;1.13;;;17.10;99.90;;;;;;5093423;28;20536;-60
2023/05/15 10:25:15;;;;;;;3.45;0.93;;;17.00;99.90;;;;;;5093422;28;20217;-60
2023/05/15 10:27:41;;;;;;;4.47;1.17;;;18.20;99.90;;;;;;5093532;28;20172;-60
2023/05/15 10:30:09;;;;;;;5.32;1.30;;;18.30;99.90;;;;;;5075220;28;20266;-60
2023/05/15 10:32:35;;;;;;;6.05;1.20;;;17.40;99.90;;;;;;5093711;28;20194;-60
2023/05/15 10:35:02;;;;;;;10.25;1.50;;;16.70;98.60;;;;;;5093276;28;20208;-60
2023/05/15 10:37:29;;;;;;;8.57;1.67;;;16.50;96.60;;;;;;5093439;28;20199;-59
2023/05/15 10:39:56;;;;;;;9.15;1.23;;;16.50;58.90;;;;;;5093159;28;20160;-60
2023/05/15 10:42:24;;;;;;;4.40;1.00;;;17.70;37.60;;;;;;5093210;28;20203;-60
2023/05/15 10:44:52;;;;;;;5.07;1.13;;;18.60;27.30;;;;;;5093389;28;20176;-60
2023/05/15 10:47:19;;;;;;;5.60;0.63;;;19.00;99.90;;;;;;5093076;28;20547;-59
2023/05/15 10:49:44;;;;;;;3.17;1.10;;;19.20;99.90;;;;;;5093099;28;20176;-60
2023/05/15 10:52:10;;;;;;;3.63;0.77;;;19.80;1.00;;;;;;5092933;28;20211;-60
2023/05/15 10:54:36;;;;;;;4.80;1.00;;;20.10;1.00;;;;;;5092961;28;20565;-60
2023/05/15 10:57:01;;;;;;;8.38;1.10;;;20.70;1.00;;;;;;5092907;28;20221;-60
2023/05/15 10:59:31;;;;;;;1.92;0.80;;;21.10;1.00;;;;;;5092840;28;20218;-58
2023/05/15 11:02:17;;;;;;;5.28;1.00;;;20.30;1.00;;;;;;5092849;28;20172;-59
2023/05/15 11:04:43;;;;;;;3.40;0.85;;;19.20;1.00;;;;;;5092770;28;20636;-60
2023/05/15 11:07:14;;;;;;;3.03;0.70;;;18.50;1.00;;;;;;5092799;28;20168;-60
2023/05/15 11:09:40;;;;;;;4.38;0.73;;;18.00;1.00;;;;;;5092722;28;20727;-60
2023/05/15 11:12:13;;;;;;;4.05;1.00;;;18.70;1.00;;;;;;5092822;28;20452;-60
2023/05/15 11:15:02;;;;;;;6.78;1.10;;;19.20;1.00;;;;;;5092720;28;20168;-60
2023/05/15 11:17:32;;;;;;;6.28;1.13;;;17.70;99.90;;;;;;5092330;28;20309;-60
2023/05/15 11:19:58;;;;;;;4.55;0.95;;;17.40;99.90;;;;;;5092004;28;20160;-60
2023/05/15 11:22:36;;;;;;;2.60;0.73;;;18.20;99.90;;;;;;5092453;28;20175;-60
2023/05/15 11:25:11;;;;;;;4.25;0.80;;;17.80;99.90;;;;;;5092261;28;20644;-61
2023/05/15 11:27:41;;;;;;;2.85;0.73;;;18.90;1.00;;;;;;5092360;28;20327;-60
2023/05/15 11:30:13;;;;;;;5.53;0.80;;;19.10;99.90;;;;;;5085219;28;20200;-60
2023/05/15 11:32:40;;;;;;;2.97;0.80;;;21.70;1.00;;;;;;5071896;28;20168;-60
2023/05/15 11:35:17;;;;;;;1.63;0.70;;;21.70;1.00;;;;;;5071915;28;20342;-60
2023/05/15 11:37:46;;;;;;;2.90;0.90;;;22.40;1.00;;;;;;5071959;28;20175;-59
2023/05/15 11:40:17;;;;;;;5.78;0.80;;;21.80;1.00;;;;;;5071875;28;20168;-60
2023/05/15 11:43:17;;;;;;;109.35;9.55;;;21.10;1.00;;;;;;5071839;28;20730;-59
2023/05/15 11:45:46;;;;;;;7.18;1.08;;;21.30;1.00;;;;;;5072253;28;20187;-60
2023/05/15 11:48:14;;;;;;;32.30;3.50;;;21.20;1.00;;;;;;5071649;28;20171;-60
2023/05/15 11:50:41;;;;;;;4.22;0.93;;;21.20;1.00;;;;;;5053837;28;20223;-60
2023/05/15 11:53:08;;;;;;;3.92;0.90;;;20.60;1.00;;;;;;5071532;28;20746;-60
2023/05/15 11:55:39;;;;;;;5.47;0.90;;;20.90;1.00;;;;;;5071460;28;20199;-60
2023/05/15 11:58:09;;;;;;;4.35;0.68;;;20.60;1.00;;;;;;5071645;28;20261;-60
2023/05/15 12:00:35;;;;;;;2.60;0.63;;;22.20;1.00;;;;;;5071381;28;20234;-60
2023/05/15 12:03:02;;;;;;;2.65;0.77;;;22.30;1.00;;;;;;5071403;28;20200;-60
2023/05/15 12:05:29;;;;;;;4.70;0.80;;;22.70;1.00;;;;;;5071270;28;20180;-60
2023/05/15 12:07:55;;;;;;;5.88;1.00;;;23.70;1.00;;;;;;5071335;28;20633;-59
2023/05/15 12:10:21;;;;;;;2.08;0.63;;;23.10;1.00;;;;;;5071212;28;20203;-60
2023/05/15 12:12:48;;;;;;;2.35;0.80;;;21.90;1.00;;;;;;5071581;28;20651;-59
2023/05/15 12:15:16;;;;;;;4.72;0.85;;;20.50;1.00;;;;;;5071393;28;20588;-60
2023/05/15 12:17:43;;;;;;;2.42;0.75;;;19.60;1.00;;;;;;5053258;28;20251;-60
2023/05/15 12:20:16;;;;;;;3.75;0.90;;;19.10;99.90;;;;;;5071067;28;20617;-59
2023/05/15 12:22:42;;;;;;;5.20;1.27;;;18.50;99.90;;;;;;5071143;28;20177;-59
2023/05/15 12:25:10;;;;;;;2.53;0.80;;;18.80;99.90;;;;;;5070980;28;20625;-60
2023/05/15 12:27:37;;;;;;;9.23;1.23;;;20.60;99.90;;;;;;5071148;28;20263;-60
2023/05/15 12:30:04;;;;;;;2.97;0.70;;;21.90;1.00;;;;;;5076360;28;20703;-60
2023/05/15 12:32:33;;;;;;;7.00;0.85;;;22.80;1.00;;;;;;5090976;28;20184;-61
2023/05/15 12:34:59;;;;;;;5.70;1.10;;;;;;;;;;5107122;28;20219;-61
2023/05/15 12:37:25;;;;;;;4.47;0.80;;;21.80;1.00;;;;;;5091234;28;20172;-61
2023/05/15 12:40:02;;;;;;;5.40;0.90;;;21.00;1.00;;;;;;5106678;28;20202;-61
2023/05/15 12:42:28;;;;;;;5.47;1.10;;;20.30;1.00;;;;;;5105834;28;20206;-61
2023/05/15 12:44:55;;;;;;;4.10;0.60;;;20.60;1.00;;;;;;5091115;28;20171;-61
2023/05/15 12:47:25;;;;;;;2.85;0.90;;;20.20;99.90;;;;;;5091059;28;20198;-60
2023/05/15 12:49:56;;;;;;;3.75;0.90;;;19.80;1.00;;;;;;5091039;28;20171;-60
2023/05/15 12:52:21;;;;;;;5.13;0.80;;;19.30;99.90;;;;;;5090921;28;20188;-60
2023/05/15 12:54:47;;;;;;;5.93;1.00;;;19.10;99.90;;;;;;5106603;28;20539;-60